createdAt,value
2023-04-18T00:02:23.135Z,74.77
2023-04-18T00:04:51.421Z,71.00
2023-04-18T00:07:19.265Z,75.85
2023-04-18T00:09:46.966Z,75.66
2023-04-18T00:12:15.415Z,76.28
2023-04-18T00:14:43.749Z,75.39
2023-04-18T00:17:13.487Z,77.30
2023-04-18T00:19:43.361Z,73.65
2023-04-18T00:22:11.582Z,74.59
2023-04-18T00:24:48.143Z,73.85
2023-04-18T00:27:16.265Z,74.66
2023-04-18T00:29:43.974Z,75.62
2023-04-18T00:32:11.731Z,80.94
2023-04-18T00:34:40.489Z,83.55
2023-04-18T00:37:09.942Z,82.39
2023-04-18T00:39:37.690Z,84.84
2023-04-18T00:42:05.544Z,82.20
2023-04-18T00:44:33.474Z,81.24
2023-04-18T00:47:01.392Z,83.09
2023-04-18T00:49:29.291Z,82.77
2023-04-18T00:51:57.190Z,80.21
2023-04-18T00:54:27.394Z,83.91
2023-04-18T00:56:55.185Z,83.37
2023-04-18T00:59:23.146Z,80.91
2023-04-18T01:01:51.209Z,81.46
2023-04-18T01:04:19.387Z,81.21
2023-04-18T01:06:47.308Z,85.78
2023-04-18T01:09:15.994Z,81.52
2023-04-18T01:11:45.086Z,81.32
2023-04-18T01:14:12.978Z,81.52
2023-04-18T01:16:40.876Z,82.85
2023-04-18T01:19:23.246Z,80.58
2023-04-18T01:21:53.544Z,78.41
2023-04-18T01:24:24.795Z,82.69
2023-04-18T01:26:52.480Z,83.43
2023-04-18T01:29:20.228Z,83.51
2023-04-18T01:31:49.455Z,84.90
2023-04-18T01:34:17.871Z,82.08
2023-04-18T01:36:46.730Z,79.96
2023-04-18T01:39:14.723Z,79.32
2023-04-18T01:41:43.948Z,80.16
2023-04-18T01:44:11.985Z,80.66
2023-04-18T01:49:48.152Z,78.48
2023-04-18T01:52:16.171Z,80.25
2023-04-18T01:54:44.097Z,78.10
2023-04-18T01:57:13.309Z,79.64
2023-04-18T01:59:41.018Z,78.43
2023-04-18T02:02:09.031Z,76.69
2023-04-18T02:04:36.971Z,77.56
2023-04-18T02:07:04.742Z,80.09
2023-04-18T02:09:32.410Z,83.78
2023-04-18T02:12:02.685Z,80.96
2023-04-18T02:14:34.173Z,81.83
2023-04-18T02:17:01.942Z,82.43
2023-04-18T02:19:30.967Z,81.86
2023-04-18T02:21:58.737Z,82.93
2023-04-18T02:24:26.624Z,83.34
2023-04-18T02:26:54.346Z,83.07
2023-04-18T02:29:22.039Z,80.62
2023-04-18T02:31:51.207Z,79.84
2023-04-18T02:34:28.029Z,77.17
2023-04-18T02:36:55.767Z,77.97
2023-04-18T02:39:23.495Z,80.26
2023-04-18T02:41:51.350Z,77.74
2023-04-18T02:44:19.092Z,78.07
2023-04-18T02:46:46.808Z,82.43
2023-04-18T02:49:16.146Z,80.38
2023-04-18T02:51:43.849Z,78.14
2023-04-18T02:54:11.838Z,82.31
2023-04-18T02:56:40.289Z,79.58
2023-04-18T02:59:08.340Z,77.79
2023-04-18T03:01:36.075Z,76.60
2023-04-18T03:04:03.891Z,78.38
2023-04-18T03:06:33.088Z,79.37
2023-04-18T03:09:00.963Z,81.62
2023-04-18T03:11:28.680Z,79.10
2023-04-18T03:13:56.684Z,78.40
2023-04-18T03:16:24.550Z,76.38
2023-04-18T03:18:52.274Z,78.34
2023-04-18T03:21:19.981Z,78.56
2023-04-18T03:23:49.439Z,78.25
2023-04-18T03:26:17.272Z,80.55
2023-04-18T03:28:44.962Z,77.29
2023-04-18T03:31:12.684Z,74.65
2023-04-18T03:33:42.316Z,72.26
2023-04-18T03:36:10.240Z,72.24
2023-04-18T03:38:40.688Z,73.23
2023-04-18T03:41:09.823Z,76.73
2023-04-18T03:43:37.539Z,79.16
2023-04-18T03:46:05.595Z,80.83
2023-04-18T03:48:35.883Z,78.17
2023-04-18T03:51:03.812Z,75.53
2023-04-18T03:54:12.019Z,80.47
2023-04-18T03:56:41.525Z,77.88
2023-04-18T03:59:09.261Z,78.45
2023-04-18T04:01:37.322Z,78.11
2023-04-18T04:04:05.564Z,75.72
2023-04-18T04:06:33.468Z,77.67
2023-04-18T04:09:01.282Z,80.85
2023-04-18T04:11:29.289Z,83.24
2023-04-18T04:13:58.431Z,79.89
2023-04-18T04:16:26.220Z,79.85
2023-04-18T04:18:54.181Z,80.51
2023-04-18T04:21:24.632Z,78.87
2023-04-18T04:23:52.455Z,82.07
2023-04-18T04:26:23.170Z,78.69
2023-04-18T04:28:51.666Z,79.04
2023-04-18T04:31:22.237Z,82.12
2023-04-18T04:33:50.266Z,80.53
2023-04-18T04:36:19.554Z,85.65
2023-04-18T04:38:47.388Z,82.97
2023-04-18T04:41:15.294Z,82.84
2023-04-18T04:43:42.980Z,80.41
2023-04-18T04:46:13.667Z,80.12
2023-04-18T04:48:43.284Z,79.33
2023-04-18T04:51:11.079Z,82.72
2023-04-18T04:53:39.018Z,82.50
2023-04-18T04:56:07.194Z,84.04
2023-04-18T04:58:35.012Z,79.25
2023-04-18T05:01:02.958Z,80.17
2023-04-18T05:03:31.276Z,81.90
2023-04-18T05:06:00.964Z,80.20
2023-04-18T05:08:28.897Z,82.93
2023-04-18T05:10:56.801Z,82.68
2023-04-18T05:13:24.528Z,84.82
2023-04-18T05:15:53.072Z,83.14
2023-04-18T05:18:21.310Z,81.51
2023-04-18T05:20:49.353Z,82.39
2023-04-18T05:23:18.517Z,83.83
2023-04-18T05:25:46.557Z,83.67
2023-04-18T05:28:14.256Z,84.76
2023-04-18T05:30:42.187Z,82.46
2023-04-18T05:33:25.250Z,83.66
2023-04-18T05:35:53.252Z,84.67
2023-04-18T05:38:22.438Z,81.67
2023-04-18T05:40:51.214Z,83.88
2023-04-18T05:43:20.329Z,85.95
2023-04-18T05:45:48.274Z,82.44
2023-04-18T05:48:16.114Z,83.67
2023-04-18T05:51:02.330Z,82.16
2023-04-18T05:53:31.450Z,85.55
2023-04-18T05:55:59.897Z,86.71
2023-04-18T05:58:31.008Z,82.71
2023-04-18T06:00:58.964Z,82.17
2023-04-18T06:03:26.883Z,83.04
2023-04-18T06:05:55.123Z,80.43
2023-04-18T06:08:22.948Z,83.39
2023-04-18T06:10:52.120Z,83.57
2023-04-18T06:13:26.238Z,81.20
2023-04-18T06:15:54.034Z,81.58
2023-04-18T06:18:21.785Z,86.87
2023-04-18T06:20:49.569Z,87.27
2023-04-18T06:23:17.298Z,83.85
2023-04-18T06:25:45.317Z,83.73
2023-04-18T06:28:14.446Z,83.16
2023-04-18T06:30:42.150Z,82.43
2023-04-18T06:33:11.136Z,81.47
2023-04-18T06:35:38.978Z,83.28
2023-04-18T06:38:06.793Z,83.63
2023-04-18T06:40:34.546Z,85.92
2023-04-18T06:43:02.710Z,87.98
2023-04-18T06:45:32.686Z,90.05
2023-04-18T06:48:00.733Z,88.03
2023-04-18T06:50:28.468Z,87.85
2023-04-18T06:52:56.307Z,88.19
2023-04-18T06:55:24.112Z,88.33
2023-04-18T06:57:51.855Z,88.41
2023-04-18T07:00:20.039Z,91.08
2023-04-18T07:02:49.796Z,91.80
2023-04-18T07:05:17.727Z,89.40
2023-04-18T07:07:45.460Z,88.68
2023-04-18T07:10:13.677Z,87.59
2023-04-18T07:12:41.391Z,83.57
2023-04-18T07:15:10.929Z,82.93
2023-04-18T07:17:38.763Z,84.88
2023-04-18T07:20:09.593Z,84.21
2023-04-18T07:22:37.309Z,87.82
2023-04-18T07:25:05.764Z,86.65
2023-04-18T07:27:35.490Z,87.20
2023-04-18T07:30:03.384Z,85.87
2023-04-18T07:32:31.653Z,87.69
2023-04-18T07:34:59.500Z,83.80
2023-04-18T07:37:28.769Z,83.79
2023-04-18T07:39:56.531Z,82.73
2023-04-18T07:42:24.356Z,85.53
2023-04-18T07:44:52.736Z,82.94
2023-04-18T07:47:22.296Z,84.11
2023-04-18T07:49:50.293Z,83.59
2023-04-18T07:52:18.079Z,84.65
2023-04-18T07:55:02.669Z,86.13
2023-04-18T07:57:30.397Z,84.32
2023-04-18T07:59:58.124Z,85.35
2023-04-18T08:02:26.012Z,88.01
2023-04-18T08:04:56.459Z,91.10
2023-04-18T08:07:24.659Z,83.16
2023-04-18T08:09:52.777Z,83.96
2023-04-18T08:12:22.031Z,84.91
2023-04-18T08:14:49.869Z,87.77
2023-04-18T08:17:18.173Z,87.31
2023-04-18T08:19:46.250Z,86.11
2023-04-18T08:22:14.082Z,80.27
2023-04-18T08:25:05.518Z,87.08
2023-04-18T08:27:34.986Z,86.30
2023-04-18T08:30:04.209Z,85.31
2023-04-18T08:32:32.392Z,85.72
2023-04-18T08:35:00.914Z,88.77
2023-04-18T08:37:29.146Z,83.45
2023-04-18T08:39:56.964Z,85.57
2023-04-18T08:42:24.826Z,86.35
2023-04-18T08:44:54.211Z,85.42
2023-04-18T08:47:21.933Z,77.87
2023-04-18T08:49:49.716Z,78.30
2023-04-18T08:52:18.257Z,80.33
2023-04-18T08:54:55.069Z,80.63
2023-04-18T08:57:26.987Z,81.90
2023-04-18T08:59:56.661Z,82.60
2023-04-18T09:02:38.999Z,76.36
2023-04-18T09:05:12.657Z,78.71
2023-04-18T09:07:40.663Z,79.85
2023-04-18T09:10:09.923Z,80.86
2023-04-18T09:12:50.336Z,77.12
2023-04-18T09:15:24.404Z,80.05
2023-04-18T09:17:55.025Z,80.13
2023-04-18T09:20:30.416Z,79.86
2023-04-18T09:23:00.735Z,83.29
2023-04-18T09:25:30.270Z,78.47
2023-04-18T09:28:01.040Z,76.43
2023-04-18T09:30:36.944Z,76.36
2023-04-18T09:33:07.600Z,71.79
2023-04-18T09:35:35.923Z,73.57
2023-04-18T09:38:04.055Z,73.57
2023-04-18T09:40:32.213Z,72.65
2023-04-18T09:43:00.122Z,71.49
2023-04-18T09:45:28.166Z,69.96
2023-04-18T09:47:57.369Z,70.97
2023-04-18T09:50:25.098Z,69.17
2023-04-18T09:52:53.278Z,68.83
2023-04-18T09:55:21.093Z,67.74
2023-04-18T09:57:49.628Z,69.24
2023-04-18T10:00:23.519Z,73.02
2023-04-18T10:02:53.692Z,72.66
2023-04-18T10:05:26.167Z,73.06
2023-04-18T10:07:55.316Z,71.82
2023-04-18T10:10:23.346Z,68.29
2023-04-18T10:12:52.676Z,71.09
2023-04-18T10:15:22.363Z,68.52
2023-04-18T10:18:03.485Z,65.73
2023-04-18T10:20:36.068Z,60.37
2023-04-18T10:23:37.846Z,57.42
2023-04-18T10:26:06.381Z,63.66
2023-04-18T10:28:54.676Z,67.00
2023-04-18T10:31:23.988Z,65.27
2023-04-18T10:34:03.950Z,64.25
2023-04-18T10:36:34.509Z,64.45
2023-04-18T10:39:23.957Z,64.94
2023-04-18T10:41:52.530Z,65.22
2023-04-18T10:44:22.661Z,67.65
2023-04-18T10:47:19.915Z,63.99
2023-04-18T10:49:58.990Z,62.19
2023-04-18T10:52:28.574Z,61.67
2023-04-18T10:55:03.091Z,64.09
2023-04-18T10:57:39.531Z,66.40
2023-04-18T11:00:11.763Z,67.62
2023-04-18T11:02:40.256Z,69.39
2023-04-18T11:11:23.718Z,65.63
2023-04-18T11:13:56.896Z,60.60
2023-04-18T11:16:28.847Z,61.10
2023-04-18T11:18:56.957Z,58.69
2023-04-18T11:21:29.135Z,58.85
2023-04-18T11:23:58.571Z,57.94
2023-04-18T11:26:28.987Z,57.36
2023-04-18T11:28:58.420Z,56.74
2023-04-18T11:31:26.416Z,57.71
2023-04-18T11:33:57.351Z,57.17
2023-04-18T11:36:25.166Z,55.76
2023-04-18T11:38:52.997Z,56.35
2023-04-18T11:41:21.339Z,55.54
2023-04-18T11:43:50.432Z,53.82
2023-04-18T11:46:18.183Z,54.41
2023-04-18T11:48:46.692Z,58.39
2023-04-18T11:51:34.220Z,60.38
2023-04-18T11:54:02.088Z,63.29
2023-04-18T11:56:30.050Z,63.83
2023-04-18T11:58:59.510Z,62.45
2023-04-18T12:04:52.109Z,60.54
2023-04-18T12:07:34.335Z,58.54
2023-04-18T12:10:02.421Z,59.96
2023-04-18T12:12:30.228Z,61.00
2023-04-18T12:15:04.638Z,59.94
2023-04-18T12:17:32.499Z,57.27
2023-04-18T12:20:04.822Z,59.80
2023-04-18T12:22:40.377Z,57.84
2023-04-18T12:25:20.127Z,58.10
2023-04-18T12:27:50.437Z,58.16
2023-04-18T12:30:22.095Z,55.01
2023-04-18T12:35:54.066Z,57.06
2023-04-18T12:38:23.367Z,57.98
2023-04-18T12:40:51.788Z,54.86
2023-04-18T12:43:19.610Z,56.29
2023-04-18T12:45:48.746Z,58.56
2023-04-18T12:48:16.424Z,60.95
2023-04-18T12:50:44.122Z,57.60
2023-04-18T12:53:27.086Z,58.74
2023-04-18T12:55:54.747Z,61.29
2023-04-18T12:58:22.517Z,57.20
2023-04-18T13:00:51.692Z,57.59
2023-04-18T13:03:19.671Z,57.83
2023-04-18T13:05:47.474Z,56.79
2023-04-18T13:08:17.547Z,55.92
2023-04-18T13:10:46.172Z,55.97
2023-04-18T13:13:14.007Z,53.64
2023-04-18T13:15:41.679Z,54.82
2023-04-18T13:18:11.093Z,52.76
2023-04-18T13:20:38.826Z,51.84
2023-04-18T13:23:06.486Z,54.96
2023-04-18T13:25:34.161Z,56.86
2023-04-18T13:28:01.948Z,57.89
2023-04-18T13:30:29.858Z,58.04
2023-04-18T13:32:58.099Z,55.76
2023-04-18T13:35:27.236Z,53.29
2023-04-18T13:37:54.972Z,52.73
2023-04-18T13:40:22.701Z,52.58
2023-04-18T13:42:50.425Z,50.56
2023-04-18T13:45:18.233Z,53.63
2023-04-18T13:47:45.928Z,50.61
2023-04-18T13:50:13.630Z,49.72
2023-04-18T13:52:42.693Z,54.23
2023-04-18T13:55:12.487Z,56.71
2023-04-18T13:57:41.276Z,55.34
2023-04-18T14:00:12.794Z,52.64
2023-04-18T14:02:40.638Z,47.06
2023-04-18T14:05:09.445Z,43.69
2023-04-18T14:08:04.160Z,45.22
2023-04-18T14:10:32.953Z,42.83
2023-04-18T14:13:00.729Z,43.13
2023-04-18T14:15:28.549Z,45.69
2023-04-18T14:17:56.423Z,44.78
2023-04-18T14:20:25.780Z,44.44
2023-04-18T14:22:53.756Z,45.78
2023-04-18T14:25:23.543Z,43.97
2023-04-18T14:28:05.363Z,44.96
2023-04-18T14:30:33.461Z,43.00
2023-04-18T14:33:01.213Z,43.33
2023-04-18T14:35:28.959Z,43.27
2023-04-18T14:37:56.688Z,39.53
2023-04-18T14:40:25.977Z,40.07
2023-04-18T14:42:54.253Z,40.77
2023-04-18T14:45:28.084Z,41.09
2023-04-18T14:47:56.015Z,45.11
2023-04-18T14:50:23.969Z,37.95
2023-04-18T14:52:52.221Z,39.12
2023-04-18T14:55:20.457Z,38.30
2023-04-18T14:57:49.648Z,40.55
2023-04-18T15:00:17.895Z,40.17
2023-04-18T15:02:45.853Z,42.39
2023-04-18T15:05:14.206Z,38.54
2023-04-18T15:07:43.519Z,41.29
2023-04-18T15:10:13.235Z,41.51
2023-04-18T15:12:43.475Z,42.19
2023-04-18T15:15:12.823Z,41.77
2023-04-18T15:17:40.563Z,38.08
2023-04-18T15:20:09.465Z,36.81
2023-04-18T15:22:37.268Z,35.49
2023-04-18T15:25:06.484Z,37.28
2023-04-18T15:27:34.431Z,39.57
2023-04-18T15:30:02.383Z,38.41
2023-04-18T15:32:31.487Z,43.54
2023-04-18T15:34:59.204Z,41.00
2023-04-18T15:37:27.332Z,42.50
2023-04-18T15:39:55.013Z,37.54
2023-04-18T15:42:23.334Z,36.79
2023-04-18T15:44:51.031Z,39.63
2023-04-18T15:47:18.911Z,38.70
2023-04-18T15:49:51.009Z,38.32
2023-04-18T15:52:18.791Z,35.75
2023-04-18T15:54:46.561Z,34.31
2023-04-18T15:57:14.880Z,33.60
2023-04-18T15:59:42.548Z,30.23
2023-04-18T16:02:11.087Z,33.40
2023-04-18T16:04:39.180Z,39.25
2023-04-18T16:07:08.991Z,40.76
2023-04-18T16:09:36.920Z,36.94
2023-04-18T16:12:07.166Z,38.70
2023-04-18T16:14:34.940Z,39.13
2023-04-18T16:17:03.095Z,40.00
2023-04-18T16:19:30.856Z,39.86
2023-04-18T16:21:58.805Z,37.50
2023-04-18T16:24:30.199Z,39.18
2023-04-18T16:26:58.825Z,40.42
2023-04-18T16:29:26.848Z,44.77
2023-04-18T16:31:54.621Z,44.78
2023-04-18T16:34:22.355Z,42.44
2023-04-18T16:36:51.142Z,41.38
2023-04-18T16:39:19.280Z,43.23
2023-04-18T16:41:48.485Z,44.47
2023-04-18T16:44:16.367Z,44.93
2023-04-18T16:46:44.411Z,47.17
2023-04-18T16:49:19.124Z,45.34
2023-04-18T16:51:46.813Z,46.72
2023-04-18T16:54:14.875Z,46.97
2023-04-18T16:56:44.612Z,50.02
2023-04-18T16:59:13.847Z,53.65
2023-04-18T17:01:41.731Z,51.36
2023-04-18T17:04:09.606Z,50.83
2023-04-18T17:06:37.310Z,50.23
2023-04-18T17:09:06.482Z,49.23
2023-04-18T17:11:39.624Z,49.16
2023-04-18T17:14:20.317Z,51.96
2023-04-18T17:16:49.596Z,50.47
2023-04-18T17:19:19.072Z,52.51
2023-04-18T17:21:47.106Z,52.80
2023-04-18T17:24:14.860Z,51.20
2023-04-18T17:26:42.898Z,50.69
2023-04-18T17:29:10.598Z,49.77
2023-04-18T17:31:39.892Z,51.58
2023-04-18T17:34:07.757Z,51.55
2023-04-18T17:36:35.435Z,52.58
2023-04-18T17:39:06.288Z,52.80
2023-04-18T17:41:37.411Z,50.92
2023-04-18T17:44:05.629Z,52.36
2023-04-18T17:46:33.764Z,52.98
2023-04-18T17:49:02.978Z,53.85
2023-04-18T17:51:31.010Z,53.02
2023-04-18T17:53:58.856Z,53.99
2023-04-18T17:56:26.925Z,53.36
2023-04-18T17:58:56.589Z,54.93
2023-04-18T18:01:24.921Z,56.56
2023-04-18T18:03:54.235Z,56.60
2023-04-18T18:06:23.874Z,57.42
2023-04-18T18:08:51.570Z,57.90
2023-04-18T18:11:19.333Z,55.98
2023-04-18T18:13:47.217Z,56.46
2023-04-18T18:16:14.954Z,53.76
2023-04-18T18:18:43.196Z,55.92
2023-04-18T18:21:11.543Z,57.21
2023-04-18T18:23:40.779Z,58.25
2023-04-18T18:26:09.958Z,57.14
2023-04-18T18:28:37.986Z,59.01
2023-04-18T18:31:05.969Z,57.52
2023-04-18T18:33:33.772Z,58.22
2023-04-18T18:36:01.852Z,59.87
2023-04-18T18:38:29.628Z,62.04
2023-04-18T18:40:59.102Z,62.44
2023-04-18T18:43:27.909Z,60.97
2023-04-18T18:45:55.753Z,63.01
2023-04-18T18:48:24.603Z,63.57
2023-04-18T18:50:52.501Z,63.56
2023-04-18T18:53:20.254Z,64.68
2023-04-18T18:55:47.942Z,63.54
2023-04-18T18:58:17.019Z,65.06
2023-04-18T19:00:44.717Z,63.47
2023-04-18T19:03:12.769Z,63.37
2023-04-18T19:05:42.135Z,64.84
2023-04-18T19:08:09.811Z,64.97
2023-04-18T19:10:37.854Z,63.74
2023-04-18T19:13:05.718Z,65.17
2023-04-18T19:15:34.859Z,65.74
2023-04-18T19:18:02.586Z,66.11
2023-04-18T19:20:30.603Z,69.11
2023-04-18T19:22:58.314Z,70.15
2023-04-18T19:25:26.274Z,69.69
2023-04-18T19:27:54.248Z,70.92
2023-04-18T19:30:22.158Z,70.61
2023-04-18T19:32:51.295Z,68.89
2023-04-18T19:35:19.015Z,69.61
2023-04-18T19:37:46.803Z,67.02
2023-04-18T19:40:15.203Z,70.99
2023-04-18T19:42:42.881Z,70.21
2023-04-18T19:45:13.710Z,71.59
2023-04-18T19:47:44.032Z,73.32
2023-04-18T19:50:35.962Z,70.85
2023-04-18T19:53:03.662Z,68.57
2023-04-18T19:55:31.599Z,67.66
2023-04-18T19:58:00.417Z,67.00
2023-04-18T20:00:29.385Z,67.60
2023-04-18T20:02:58.702Z,71.89
2023-04-18T20:05:28.364Z,74.44
2023-04-18T20:07:56.667Z,70.23
2023-04-18T20:10:24.602Z,69.13
2023-04-18T20:12:52.275Z,67.54
2023-04-18T20:15:20.191Z,69.35
2023-04-18T20:17:47.870Z,70.99
2023-04-18T20:20:15.794Z,70.81
2023-04-18T20:22:46.942Z,71.70
2023-04-18T20:25:14.627Z,67.81
2023-04-18T20:27:42.306Z,66.62
2023-04-18T20:30:10.725Z,65.53
2023-04-18T20:32:38.421Z,64.69
2023-04-18T20:35:07.374Z,63.73
2023-04-18T20:37:36.764Z,67.51
2023-04-18T20:40:11.088Z,72.65
2023-04-18T20:42:39.001Z,79.29
2023-04-18T20:45:10.859Z,81.18
2023-04-18T20:47:38.764Z,82.46
2023-04-18T20:50:07.748Z,80.91
2023-04-18T20:52:35.425Z,79.73
2023-04-18T20:55:03.163Z,81.63
2023-04-18T20:57:32.238Z,81.46
2023-04-18T20:59:59.955Z,79.90
2023-04-18T21:02:28.036Z,82.56
2023-04-18T21:04:55.811Z,76.88
2023-04-18T21:07:23.484Z,77.86
2023-04-18T21:09:51.174Z,77.48
2023-04-18T21:12:18.909Z,77.63
2023-04-18T21:14:48.432Z,76.26
2023-04-18T21:17:17.453Z,78.04
2023-04-18T21:19:46.147Z,78.36
2023-04-18T21:22:14.830Z,77.13
2023-04-18T21:24:42.608Z,79.99
2023-04-18T21:27:10.680Z,76.69
2023-04-18T21:29:38.387Z,79.43
2023-04-18T21:32:07.616Z,77.38
2023-04-18T21:34:35.349Z,79.26
2023-04-18T21:37:03.093Z,76.29
2023-04-18T21:39:30.912Z,75.21
2023-04-18T21:41:58.603Z,75.81
2023-04-18T21:44:26.526Z,76.47
2023-04-18T21:46:54.187Z,76.37
2023-04-18T21:49:23.259Z,77.82
2023-04-18T21:51:51.010Z,78.74
2023-04-18T21:54:18.768Z,76.51
2023-04-18T21:56:46.448Z,75.01
2023-04-18T21:59:14.099Z,76.10
2023-04-18T22:01:41.819Z,78.02
2023-04-18T22:04:09.710Z,76.04
2023-04-18T22:06:38.953Z,76.33
2023-04-18T22:09:07.335Z,77.25
2023-04-18T22:11:35.055Z,78.89
2023-04-18T22:14:02.728Z,75.99
2023-04-18T22:16:30.732Z,75.57
2023-04-18T22:18:58.403Z,76.66
2023-04-18T22:21:26.515Z,74.78
2023-04-18T22:23:55.593Z,75.72
2023-04-18T22:26:23.546Z,76.79
2023-04-18T22:28:51.226Z,78.93
2023-04-18T22:31:19.006Z,80.11
2023-04-18T22:33:47.673Z,79.25
2023-04-18T22:36:15.519Z,75.86
2023-04-18T22:38:43.189Z,76.85
2023-04-18T22:41:13.044Z,81.83
2023-04-18T22:43:40.737Z,76.55
2023-04-18T22:46:08.410Z,76.25
2023-04-18T22:48:36.245Z,76.79
2023-04-18T22:51:03.993Z,78.65
2023-04-18T22:53:31.716Z,79.94
2023-04-18T22:55:59.382Z,77.89
2023-04-18T22:58:28.610Z,79.71
2023-04-18T23:00:56.379Z,79.20
2023-04-18T23:03:24.204Z,79.25
2023-04-18T23:05:52.773Z,79.60
2023-04-18T23:08:22.607Z,78.70
2023-04-18T23:10:50.438Z,78.66
2023-04-18T23:13:18.159Z,78.40
2023-04-18T23:15:47.273Z,77.29
2023-04-18T23:18:15.291Z,75.86
2023-04-18T23:20:42.998Z,78.02
2023-04-18T23:23:10.812Z,80.11
2023-04-18T23:25:38.543Z,78.09
2023-04-18T23:28:06.391Z,77.07
2023-04-18T23:30:36.237Z,76.18
2023-04-18T23:33:05.927Z,74.72
2023-04-18T23:35:33.672Z,79.29
2023-04-18T23:38:01.472Z,77.16
2023-04-18T23:40:29.328Z,79.84
2023-04-18T23:42:57.135Z,77.53
2023-04-18T23:45:25.467Z,80.60
2023-04-18T23:47:53.171Z,78.84
2023-04-18T23:50:22.715Z,81.57
2023-04-18T23:52:50.369Z,83.78
2023-04-18T23:55:18.167Z,84.36
2023-04-18T23:57:45.837Z,82.86
